Time;durP1;ratioP1;P1;durP2;ratioP2;P2;SDS_P1;SDS_P2;PMS_P1;PMS_P2;Temp;Humidity;BMP_temperature;BMP_pressure;BME280_temperature;BME280_humidity;BME280_pressure;Samples;Min_cycle;Max_cycle;Signal;HPM_P1;HPM_P2
2021/04/28 00:01:39;;;;;;;4.05;1.67;;;;;;;4.53;40.70;101041.97;5012100;28;20052;-86
2021/04/28 00:04:05;;;;;;;3.30;1.38;;;;;;;4.69;40.19;101042.63;4992284;28;20046;-89
2021/04/28 00:06:31;;;;;;;2.60;1.23;;;;;;;4.63;40.36;101042.69;5005573;28;20034;-88
2021/04/28 00:08:57;;;;;;;3.47;1.88;;;;;;;4.70;40.57;101039.16;4995311;28;20238;-89
2021/04/28 00:11:23;;;;;;;3.50;1.38;;;;;;;4.72;40.79;101039.13;4998295;28;20083;-89
2021/04/28 00:13:48;;;;;;;3.35;1.33;;;;;;;4.74;40.80;101035.63;4992844;28;22547;-89
2021/04/28 00:16:19;;;;;;;2.55;1.10;;;;;;;4.72;41.06;101033.94;4976813;28;20038;-89
2021/04/28 00:18:45;;;;;;;2.47;1.10;;;;;;;4.79;40.69;101028.69;5012574;28;20038;-85
2021/04/28 00:21:11;;;;;;;4.38;1.35;;;;;;;4.69;40.80;101029.66;4990896;28;20050;-85
2021/04/28 00:23:36;;;;;;;2.42;1.30;;;;;;;4.74;40.81;101025.28;5018041;28;20041;-88
2021/04/28 00:26:02;;;;;;;3.83;1.42;;;;;;;4.67;41.01;101026.25;5006152;28;20498;-88
2021/04/28 00:28:28;;;;;;;4.47;1.33;;;;;;;4.72;40.71;101021.88;4993660;28;20088;-90
2021/04/28 00:30:53;;;;;;;4.18;1.15;;;;;;;4.64;41.01;101024.56;4996066;28;20033;-87
2021/04/28 00:33:19;;;;;;;2.92;1.40;;;;;;;4.68;41.07;101025.38;5007756;28;20057;-84
2021/04/28 00:35:45;;;;;;;2.97;1.15;;;;;;;4.59;40.98;101021.19;4977335;28;20080;-87
2021/04/28 00:38:10;;;;;;;3.95;1.23;;;;;;;4.55;41.09;101014.31;5017927;28;20065;-88
2021/04/28 00:40:40;;;;;;;2.58;1.35;;;;;;;4.55;41.01;101018.66;4987139;28;20034;-87
2021/04/28 00:43:06;;;;;;;2.60;0.88;;;;;;;4.55;40.84;101016.06;4991700;28;20031;-87
2021/04/28 00:45:33;;;;;;;2.30;1.45;;;;;;;4.56;41.04;101007.41;4995107;28;20033;-87
2021/04/28 00:48:00;;;;;;;2.20;0.77;;;;;;;4.39;41.13;101008.47;4990502;28;20060;-90
2021/04/28 00:50:39;;;;;;;6.28;1.45;;;;;;;4.37;40.92;101005.06;4994616;28;20116;-87
2021/04/28 00:53:06;;;;;;;3.92;1.20;;;;;;;4.39;41.29;101002.47;4976798;28;20062;-87
2021/04/28 00:55:33;;;;;;;11.18;1.98;;;;;;;4.25;41.52;101010.34;5019068;28;20457;-90
2021/04/28 00:57:59;;;;;;;2.25;0.95;;;;;;;4.34;41.34;101005.09;4994223;28;20041;-87
2021/04/28 01:00:27;;;;;;;3.53;1.00;;;;;;;4.37;41.33;100999.88;5020662;28;20044;-86
2021/04/28 01:02:54;;;;;;;4.88;1.48;;;;;;;4.23;41.58;100991.44;5004203;28;20102;-86
2021/04/28 01:05:20;;;;;;;2.30;1.13;;;;;;;4.28;41.16;100997.41;4981264;28;20586;-86
2021/04/28 01:07:49;;;;;;;3.85;1.27;;;;;;;4.20;41.21;100991.44;5037554;28;20042;-86
2021/04/28 01:10:23;;;;;;;2.47;1.02;;;;;;;4.20;41.28;100988.88;4972864;28;20034;-87
2021/04/28 01:12:50;;;;;;;4.60;1.35;;;;;;;4.27;40.94;100985.31;4980516;28;20025;-88
2021/04/28 01:15:19;;;;;;;2.70;1.75;;;;;;;4.29;40.73;100982.72;5007432;28;20486;-86
2021/04/28 01:17:53;;;;;;;4.72;1.60;;;;;;;4.29;40.71;100980.13;4993295;28;20026;-87
2021/04/28 01:20:20;;;;;;;5.85;0.95;;;;;;;4.22;40.75;100974.19;4990836;28;20030;-89
2021/04/28 01:22:48;;;;;;;4.85;1.23;;;;;;;4.18;40.94;100978.53;5005556;28;20037;-85
2021/04/28 01:25:16;;;;;;;2.30;1.48;;;;;;;4.10;40.77;100969.16;5003797;28;20402;-85
2021/04/28 01:27:49;;;;;;;3.10;1.13;;;;;;;4.20;41.00;100975.94;5010442;28;20057;-89
2021/04/28 01:30:15;;;;;;;3.85;1.13;;;;;;;4.23;40.48;100970.75;5003564;28;20045;-87
2021/04/28 01:32:46;;;;;;;2.42;1.10;;;;;;;4.13;40.61;100969.13;4990718;28;20025;-85
2021/04/28 01:35:16;;;;;;;5.20;1.60;;;;;;;4.16;40.26;100969.06;5002685;28;20027;-85
2021/04/28 01:37:44;;;;;;;1.77;0.80;;;;;;;4.14;40.23;100961.34;4991942;28;20065;-85
2021/04/28 01:40:13;;;;;;;6.63;1.10;;;;;;;4.09;40.10;100954.50;5005181;28;20019;-83
2021/04/28 01:42:39;;;;;;;3.25;0.93;;;;;;;4.19;39.82;100958.72;4991778;28;20056;-88
2021/04/28 01:45:06;;;;;;;2.83;0.98;;;;;;;4.16;39.95;100963.91;4985330;28;20036;-91
2021/04/28 01:47:33;;;;;;;4.40;1.35;;;;;;;4.15;40.00;100957.03;4993926;28;20461;-89
2021/04/28 01:50:01;;;;;;;2.17;0.90;;;;;;;4.16;39.51;100957.03;5022791;28;20037;-89
2021/04/28 01:52:29;;;;;;;5.20;2.00;;;;;;;4.12;39.50;100944.09;4972186;28;20123;-88
2021/04/28 01:54:58;;;;;;;3.17;1.05;;;;;;;4.02;39.96;100946.81;4990028;28;20091;-90
2021/04/28 01:57:31;;;;;;;3.65;1.10;;;;;;;4.12;39.26;100941.53;4993811;28;20046;-87
2021/04/28 02:00:19;;;;;;;2.50;1.10;;;;;;;4.14;39.25;100937.19;4992549;28;20611;-87
2021/04/28 02:02:49;;;;;;;3.28;1.33;;;;;;;4.40;38.31;100937.72;5007736;28;20038;-89
2021/04/28 02:05:19;;;;;;;2.03;1.40;;;;;;;4.38;38.56;100943.78;5005106;28;20126;-92
2021/04/28 02:07:46;;;;;;;3.55;1.00;;;;;;;4.30;38.75;100945.66;4993969;28;20491;-87
2021/04/28 02:10:13;;;;;;;2.72;0.90;;;;;;;4.28;38.63;100940.47;5004055;28;20026;-87
2021/04/28 02:12:40;;;;;;;2.40;0.98;;;;;;;4.33;38.39;100933.50;4993622;28;20065;-85
2021/04/28 02:15:14;;;;;;;2.55;1.52;;;;;;;4.39;38.33;100930.84;4988675;28;20121;-87
2021/04/28 02:17:50;;;;;;;3.00;0.90;;;;;;;4.30;38.26;100927.53;4978608;28;20053;-89
2021/04/28 02:20:17;;;;;;;3.53;1.30;;;;;;;4.33;38.18;100923.16;5000648;28;20033;-88
2021/04/28 02:22:52;;;;;;;2.97;1.33;;;;;;;4.33;38.00;100924.88;4977984;28;20033;-86
2021/04/28 02:25:22;;;;;;;3.45;1.60;;;;;;;4.37;37.67;100923.97;4989904;28;20037;-88
2021/04/28 02:27:58;;;;;;;6.18;1.30;;;;;;;4.17;37.99;100926.81;4992811;28;20395;-88
2021/04/28 02:30:27;;;;;;;4.05;1.58;;;;;;;4.14;37.94;100921.66;5009690;28;20136;-89
2021/04/28 02:32:53;;;;;;;5.00;0.80;;;;;;;4.25;37.81;100919.81;4980544;28;20073;-85
2021/04/28 02:35:38;;;;;;;1.63;1.02;;;;;;;4.10;37.97;100920.88;4995291;28;20072;-86
2021/04/28 02:38:15;;;;;;;2.63;1.25;;;;;;;3.91;38.43;100922.81;5007093;28;20037;-87
2021/04/28 02:41:14;;;;;;;4.25;1.23;;;;;;;3.99;37.98;100913.22;4991922;28;20046;-88
2021/04/28 02:43:43;;;;;;;1.90;0.80;;;;;;;4.08;38.23;100914.00;4990770;28;20118;-88
2021/04/28 02:46:15;;;;;;;4.25;1.08;;;;;;;3.98;38.29;100913.25;4989956;28;20040;-89
2021/04/28 02:48:48;;;;;;;2.22;1.20;;;;;;;3.92;38.27;100909.00;4995742;28;20034;-87
2021/04/28 02:51:34;;;;;;;2.85;1.23;;;;;;;3.90;38.54;100915.94;5006885;28;20057;-87
2021/04/28 02:54:02;;;;;;;3.92;1.38;;;;;;;3.87;38.66;100912.50;4994652;28;20137;-89
2021/04/28 02:56:30;;;;;;;1.67;0.73;;;;;;;3.82;38.72;100903.97;4994349;28;20037;-89
2021/04/28 02:58:58;;;;;;;2.95;1.42;;;;;;;3.69;38.80;100906.66;4990200;28;20109;-85
2021/04/28 03:01:25;;;;;;;5.65;1.48;;;;;;;3.59;38.96;100899.91;4988751;28;20026;-86
2021/04/28 03:03:53;;;;;;;2.42;1.00;;;;;;;3.42;39.33;100907.81;4996736;28;20466;-89
2021/04/28 03:06:29;;;;;;;3.65;1.17;;;;;;;3.45;39.22;100902.63;4982741;28;20480;-87
2021/04/28 03:08:58;;;;;;;2.28;1.13;;;;;;;3.49;39.19;100903.44;4991325;28;20498;-85
2021/04/28 03:11:25;;;;;;;1.83;0.93;;;;;;;3.44;39.32;100906.06;4997547;28;20092;-85
2021/04/28 03:13:54;;;;;;;2.50;1.00;;;;;;;3.34;39.81;100902.72;4980871;28;20402;-87
2021/04/28 03:16:22;;;;;;;2.50;1.35;;;;;;;3.36;39.53;100900.13;4995363;28;20048;-86
2021/04/28 03:18:48;;;;;;;3.13;1.30;;;;;;;3.16;39.92;100898.56;5008325;28;20041;-91
2021/04/28 03:21:16;;;;;;;3.95;1.05;;;;;;;3.16;39.75;100889.97;5006233;28;20046;-90
2021/04/28 03:23:43;;;;;;;2.72;0.88;;;;;;;3.18;39.81;100895.97;4995832;28;20037;-90
2021/04/28 03:26:13;;;;;;;5.78;1.10;;;;;;;3.01;40.07;100890.09;4980905;28;20030;-90
2021/04/28 03:28:41;;;;;;;;;;;;;;;3.12;39.64;100888.28;5004832;28;20026;-89
2021/04/28 03:31:07;;;;;;;2.38;1.00;;;;;;;3.21;39.61;100887.34;4975014;28;19921;-87
2021/04/28 03:33:33;;;;;;;4.57;1.70;;;;;;;3.14;39.53;100892.53;4994979;28;20042;-88
2021/04/28 03:36:04;;;;;;;3.67;0.95;;;;;;;3.36;38.88;100884.63;5005431;28;20477;-88
2021/04/28 03:38:37;;;;;;;2.53;0.90;;;;;;;3.34;38.81;100882.06;5012935;28;20044;-86
2021/04/28 03:41:05;;;;;;;1.88;1.17;;;;;;;3.40;38.90;100888.88;5006029;28;20060;-85
2021/04/28 03:43:32;;;;;;;2.17;1.30;;;;;;;3.32;38.87;100888.13;4992464;28;20437;-87
2021/04/28 03:45:58;;;;;;;2.67;1.00;;;;;;;3.47;38.27;100890.56;4993286;28;20470;-88
2021/04/28 03:48:45;;;;;;;2.05;1.08;;;;;;;3.68;37.93;100886.88;4982289;28;20029;-91
2021/04/28 03:51:11;;;;;;;1.65;0.82;;;;;;;3.76;37.60;100882.47;4991756;28;20029;-84
2021/04/28 03:53:57;;;;;;;6.07;1.27;;;;;;;3.85;37.68;100891.88;4994398;28;20153;-85
2021/04/28 03:56:27;;;;;;;4.22;1.45;;;;;;;3.75;37.57;100885.06;5003025;28;20085;-85
2021/04/28 03:58:54;;;;;;;2.45;1.20;;;;;;;3.94;37.39;100885.69;5006579;28;20044;-86
2021/04/28 04:01:20;;;;;;;4.93;1.83;;;;;;;3.93;37.25;100890.03;5006891;28;20030;-88
2021/04/28 04:03:46;;;;;;;2.60;1.15;;;;;;;3.89;37.36;100888.34;5010859;28;20475;-86
2021/04/28 04:06:47;;;;;;;2.95;1.90;;;;;;;3.93;37.27;100886.59;4972839;28;20417;-89
2021/04/28 04:09:33;;;;;;;3.00;1.05;;;;;;;3.92;36.97;100880.56;4961762;28;20042;-87
2021/04/28 04:12:00;;;;;;;3.22;1.00;;;;;;;3.88;37.24;100891.81;4989846;28;20042;-85
2021/04/28 04:14:34;;;;;;;6.70;0.77;;;;;;;3.84;37.33;100886.69;4990163;28;20073;-88
2021/04/28 04:17:00;;;;;;;2.80;1.10;;;;;;;3.84;37.52;100894.47;5007709;28;20056;-85
2021/04/28 04:19:26;;;;;;;1.95;1.27;;;;;;;3.99;37.03;100891.69;4986727;28;20394;-87
2021/04/28 04:22:02;;;;;;;4.15;1.98;;;;;;;4.00;37.02;100889.06;4991113;28;20061;-86
2021/04/28 04:24:49;;;;;;;4.60;1.05;;;;;;;3.93;37.55;100884.84;4990945;28;20103;-86
2021/04/28 04:27:16;;;;;;;1.45;1.00;;;;;;;4.08;36.94;100883.81;4990951;28;20038;-86
2021/04/28 04:29:55;;;;;;;4.78;1.30;;;;;;;4.04;37.26;100887.31;4991534;28;20038;-86
2021/04/28 04:32:26;;;;;;;3.30;1.45;;;;;;;4.09;36.87;100884.66;5005074;28;20052;-85
2021/04/28 04:35:30;;;;;;;4.05;0.90;;;;;;;4.46;35.98;100890.22;5005216;28;20068;-85
2021/04/28 04:38:21;;;;;;;2.30;1.03;;;;;;;4.63;35.69;100887.34;4983732;28;20033;-87
2021/04/28 04:41:09;;;;;;;4.03;1.45;;;;;;;4.97;34.84;100881.69;5008081;28;20115;-88
2021/04/28 04:44:09;;;;;;;8.38;1.45;;;;;;;5.55;33.93;100885.00;4988383;28;20133;-86
2021/04/28 04:46:54;;;;;;;5.65;1.50;;;;;;;5.39;33.77;100885.28;4981277;28;20474;-87
2021/04/28 04:49:20;;;;;;;4.18;1.15;;;;;;;5.29;34.46;100888.06;5004747;28;20141;-89
2021/04/28 04:51:46;;;;;;;4.82;1.17;;;;;;;5.05;34.46;100885.84;5002548;28;20407;-89
2021/04/28 04:54:12;;;;;;;5.35;1.20;;;;;;;4.86;34.90;100892.19;5005156;28;20125;-87
2021/04/28 04:56:38;;;;;;;3.22;1.40;;;;;;;4.94;34.86;100892.09;5010531;28;20034;-86
2021/04/28 04:59:04;;;;;;;2.95;1.23;;;;;;;5.03;34.80;100887.63;5002908;28;20034;-84
2021/04/28 05:01:29;;;;;;;3.08;1.08;;;;;;;6.01;33.12;100884.91;4992490;28;20038;-86
2021/04/28 05:03:55;;;;;;;2.90;1.65;;;;;;;7.48;30.44;100877.16;4995254;28;20044;-86
2021/04/28 05:06:21;;;;;;;3.45;1.23;;;;;;;7.92;29.09;100877.69;4988238;28;20041;-88
2021/04/28 05:08:47;;;;;;;3.15;1.17;;;;;;;7.78;29.89;100877.22;5003970;28;20022;-86
2021/04/28 05:11:13;;;;;;;6.88;1.55;;;;;;;7.51;29.91;100874.47;4993273;28;20034;-87
2021/04/28 05:13:38;;;;;;;3.92;1.15;;;;;;;7.73;29.63;100873.03;4977517;28;20064;-85
2021/04/28 05:16:04;;;;;;;3.83;1.52;;;;;;;8.60;28.17;100873.06;4987505;28;20045;-85
2021/04/28 05:18:30;;;;;;;3.60;1.42;;;;;;;9.54;27.11;100868.16;4976841;28;20034;-87
2021/04/28 05:20:55;;;;;;;5.97;1.85;;;;;;;9.53;26.86;100869.09;4990269;28;20029;-87
2021/04/28 05:23:21;;;;;;;4.05;1.42;;;;;;;10.26;25.86;100867.28;4990686;28;20026;-88
2021/04/28 05:26:05;;;;;;;7.63;1.38;;;;;;;10.92;24.74;100867.28;4992522;28;20056;-87
2021/04/28 05:28:30;;;;;;;3.25;1.08;;;;;;;11.51;24.49;100865.63;5022798;28;20041;-88
2021/04/28 05:30:56;;;;;;;3.05;1.05;;;;;;;12.00;23.28;100860.81;5010826;28;20060;-88
2021/04/28 05:33:22;;;;;;;3.28;1.83;;;;;;;11.88;23.14;100865.72;4990580;28;20046;-86
2021/04/28 05:35:48;;;;;;;2.25;1.20;;;;;;;11.83;23.87;100864.25;4990424;28;20034;-88
2021/04/28 05:38:14;;;;;;;2.88;1.65;;;;;;;12.78;22.30;100861.50;4995549;28;20038;-91
2021/04/28 05:40:40;;;;;;;2.85;1.17;;;;;;;13.69;21.63;100866.47;5004398;28;20034;-86
2021/04/28 05:43:06;;;;;;;3.85;1.00;;;;;;;14.39;20.56;100857.44;4995902;28;20030;-87
2021/04/28 05:45:44;;;;;;;4.07;1.13;;;;;;;14.70;20.24;100853.94;4996458;28;20034;-88
2021/04/28 05:48:15;;;;;;;2.58;1.00;;;;;;;14.90;20.16;100851.00;4994227;28;20038;-86
2021/04/28 05:50:42;;;;;;;2.95;1.60;;;;;;;15.42;19.52;100857.59;5011698;28;20104;-89
2021/04/28 05:53:09;;;;;;;8.52;1.55;;;;;;;15.75;19.33;100851.19;5008711;28;20041;-86
2021/04/28 05:55:35;;;;;;;3.00;1.38;;;;;;;16.55;18.42;100849.59;4992234;28;20053;-87
2021/04/28 05:58:01;;;;;;;3.28;2.08;;;;;;;16.56;18.27;100847.81;5009973;28;20046;-88
2021/04/28 06:00:27;;;;;;;3.13;1.65;;;;;;;17.06;17.63;100851.53;4977156;28;20065;-85
2021/04/28 06:02:53;;;;;;;4.50;1.30;;;;;;;16.56;17.69;100847.81;5008929;28;20111;-86
2021/04/28 06:05:19;;;;;;;3.90;1.88;;;;;;;16.25;18.16;100851.59;4992080;28;20494;-88
2021/04/28 06:07:45;;;;;;;3.25;1.10;;;;;;;16.49;18.40;100850.00;4985656;28;20038;-86
2021/04/28 06:10:16;;;;;;;5.97;1.77;;;;;;;16.91;17.82;100842.00;4975065;28;20163;-88
2021/04/28 06:12:42;;;;;;;2.72;1.73;;;;;;;17.02;17.68;100842.13;4989166;28;20128;-87
2021/04/28 06:15:10;;;;;;;2.72;1.85;;;;;;;17.09;18.23;100853.97;4979902;28;20561;-89
2021/04/28 06:17:36;;;;;;;2.08;1.27;;;;;;;16.94;18.57;100855.84;4998190;28;20117;-88
2021/04/28 06:20:05;;;;;;;2.20;1.50;;;;;;;16.61;18.64;100843.06;4998585;28;20467;-88
2021/04/28 06:22:30;;;;;;;3.10;1.92;;;;;;;16.68;18.24;100848.78;4992522;28;20310;-86
2021/04/28 06:24:56;;;;;;;2.47;1.70;;;;;;;16.33;18.35;100842.25;4977642;28;20026;-86
2021/04/28 06:27:21;;;;;;;3.50;2.22;;;;;;;16.33;18.37;100844.91;4980648;28;20097;-86
2021/04/28 06:29:47;;;;;;;3.58;2.20;;;;;;;16.71;17.71;100843.31;4992647;28;20126;-88
2021/04/28 06:32:12;;;;;;;3.75;1.63;;;;;;;16.13;18.21;100842.66;5010631;28;20049;-87
2021/04/28 06:34:38;;;;;;;3.65;1.60;;;;;;;16.77;18.28;100843.78;4997798;28;20034;-86
2021/04/28 06:37:04;;;;;;;4.60;1.40;;;;;;;17.57;17.61;100832.22;4996438;28;20073;-86
2021/04/28 06:39:29;;;;;;;2.72;1.80;;;;;;;18.09;16.70;100836.41;4995206;28;20262;-83
2021/04/28 06:41:55;;;;;;;5.03;1.83;;;;;;;17.82;17.02;100833.97;5024850;28;20396;-85
2021/04/28 06:44:21;;;;;;;3.60;1.73;;;;;;;18.11;16.80;100831.00;5017511;28;20057;-86
2021/04/28 06:46:46;;;;;;;3.53;1.35;;;;;;;19.51;16.17;100824.00;4992789;28;20080;-85
2021/04/28 06:49:12;;;;;;;2.67;1.27;;;;;;;20.77;14.43;100824.41;5003190;28;20037;-87
2021/04/28 06:51:37;;;;;;;5.15;1.40;;;;;;;20.31;14.66;100822.94;4985941;28;20042;-86
2021/04/28 06:54:03;;;;;;;2.90;1.55;;;;;;;19.82;15.10;100826.91;4980196;28;20073;-87
2021/04/28 06:56:30;;;;;;;2.55;1.17;;;;;;;19.86;14.65;100817.69;4984922;28;20080;-88
2021/04/28 06:58:56;;;;;;;3.42;1.50;;;;;;;18.45;15.92;100824.97;5018255;28;20360;-85
2021/04/28 07:01:21;;;;;;;6.68;1.95;;;;;;;17.80;16.51;100822.66;4997721;28;20458;-86
2021/04/28 07:03:47;;;;;;;4.72;1.83;;;;;;;18.45;16.72;100824.97;5013145;28;20053;-87
2021/04/28 07:06:13;;;;;;;4.95;1.92;;;;;;;18.76;15.87;100822.66;4994534;28;20153;-88
2021/04/28 07:08:39;;;;;;;3.97;2.15;;;;;;;19.32;15.12;100819.28;4999354;28;20088;-89
2021/04/28 07:11:05;;;;;;;3.38;1.73;;;;;;;18.83;15.36;100821.25;5008758;28;20043;-87
2021/04/28 07:13:31;;;;;;;3.30;1.55;;;;;;;19.53;15.32;100815.94;4984087;28;20085;-90
2021/04/28 07:15:57;;;;;;;3.70;2.40;;;;;;;19.20;15.12;100823.75;5016837;28;20462;-85
2021/04/28 07:18:23;;;;;;;8.25;2.63;;;;;;;19.78;15.20;100823.63;5010315;28;20496;-87
2021/04/28 07:20:48;;;;;;;3.25;1.60;;;;;;;20.34;14.46;100820.03;4996983;28;20052;-85
2021/04/28 07:23:14;;;;;;;8.35;1.95;;;;;;;20.60;14.33;100819.69;4994400;28;20038;-87
2021/04/28 07:25:39;;;;;;;5.60;2.20;;;;;;;20.60;14.31;100820.53;4981227;28;20098;-86
2021/04/28 07:28:05;;;;;;;4.53;1.95;;;;;;;21.10;13.97;100819.88;4980027;28;20053;-88
2021/04/28 07:30:31;;;;;;;4.65;1.73;;;;;;;20.92;13.80;100819.66;5000014;28;20038;-88
2021/04/28 07:32:57;;;;;;;2.38;2.00;;;;;;;20.97;13.12;100808.63;5025480;28;20034;-88
2021/04/28 07:35:23;;;;;;;6.00;2.53;;;;;;;21.79;13.33;100815.72;4998415;28;20525;-88
2021/04/28 07:37:50;;;;;;;4.53;2.03;;;;;;;21.43;13.58;100810.81;4985878;28;20387;-87
2021/04/28 07:40:17;;;;;;;4.50;2.05;;;;;;;21.86;14.12;100806.19;5005292;28;20143;-86
2021/04/28 07:42:43;;;;;;;3.30;2.17;;;;;;;22.26;12.60;100810.63;4983713;28;20113;-87
2021/04/28 07:45:09;;;;;;;4.97;2.38;;;;;;;22.06;12.66;100809.72;5012402;28;20436;-87
2021/04/28 07:47:35;;;;;;;5.85;1.83;;;;;;;21.85;12.70;100801.88;4998971;28;20026;-85
2021/04/28 07:50:02;;;;;;;10.77;2.50;;;;;;;21.59;13.31;100810.31;5015679;28;20553;-85
2021/04/28 07:52:28;;;;;;;4.25;2.15;;;;;;;22.04;12.79;100809.84;4978275;28;20046;-88
2021/04/28 07:54:53;;;;;;;2.42;2.10;;;;;;;22.28;12.83;100803.34;5008701;28;20684;-89
2021/04/28 07:57:19;;;;;;;2.58;2.28;;;;;;;22.24;13.05;100804.59;5012274;28;20034;-87
2021/04/28 07:59:45;;;;;;;6.18;2.88;;;;;;;22.09;12.89;100807.69;4993174;28;20127;-89
2021/04/28 08:02:11;;;;;;;5.78;2.38;;;;;;;22.34;12.69;100792.13;5010222;28;20482;-86
2021/04/28 08:04:39;;;;;;;4.10;2.28;;;;;;;23.03;12.36;100792.88;4988672;28;20022;-89
2021/04/28 08:07:06;;;;;;;5.28;2.00;;;;;;;22.59;12.76;100793.38;4998728;28;20038;-86
2021/04/28 08:09:31;;;;;;;2.00;1.77;;;;;;;22.66;12.71;100785.66;4998467;28;20026;-87
2021/04/28 08:11:57;;;;;;;5.22;2.85;;;;;;;23.04;12.78;100790.06;5027992;28;20041;-86
2021/04/28 08:14:23;;;;;;;5.28;2.33;;;;;;;23.78;12.72;100786.50;5005738;28;20056;-86
2021/04/28 08:16:48;;;;;;;4.50;2.35;;;;;;;23.82;12.46;100781.72;4997946;28;20039;-86
2021/04/28 08:19:14;;;;;;;3.10;2.80;;;;;;;23.55;12.00;100780.75;5014179;28;20034;-85
2021/04/28 08:21:40;;;;;;;3.92;2.83;;;;;;;23.81;12.34;100783.53;5011087;28;20145;-87
2021/04/28 08:24:06;;;;;;;5.03;2.67;;;;;;;23.47;11.82;100780.66;4991552;28;20097;-83
2021/04/28 08:26:32;;;;;;;3.95;2.58;;;;;;;22.67;12.59;100790.81;5005738;28;20078;-89
2021/04/28 08:28:57;;;;;;;4.20;2.42;;;;;;;22.37;12.59;100789.19;5003232;28;20105;-85
2021/04/28 08:31:23;;;;;;;3.83;2.78;;;;;;;22.42;12.17;100792.25;5020483;28;20164;-87
2021/04/28 08:33:49;;;;;;;8.60;2.97;;;;;;;22.91;12.05;100782.38;5023955;28;20040;-86
2021/04/28 08:36:15;;;;;;;4.82;3.17;;;;;;;22.75;11.80;100787.47;5004822;28;20047;-85
2021/04/28 08:38:41;;;;;;;5.38;2.90;;;;;;;22.97;12.04;100786.31;5026135;28;20391;-85
2021/04/28 08:41:10;;;;;;;4.40;2.38;;;;;;;23.24;13.06;100782.84;4994572;28;20073;-86
2021/04/28 08:43:36;;;;;;;4.97;2.70;;;;;;;23.13;13.05;100785.69;4996475;28;20030;-88
2021/04/28 08:46:03;;;;;;;8.80;3.08;;;;;;;23.50;12.18;100780.38;4996411;28;20530;-86
2021/04/28 08:48:29;;;;;;;3.78;2.58;;;;;;;23.28;13.24;100778.09;4996060;28;20030;-88
2021/04/28 08:50:55;;;;;;;3.55;2.25;;;;;;;23.06;12.66;100785.44;5015491;28;20042;-84
2021/04/28 08:53:21;;;;;;;6.80;3.05;;;;;;;22.14;12.30;100788.63;5009473;28;20025;-89
2021/04/28 08:55:47;;;;;;;5.30;2.53;;;;;;;21.53;13.27;100792.25;4997346;28;20041;-84
2021/04/28 08:58:13;;;;;;;4.80;2.92;;;;;;;21.54;13.05;100793.94;4991221;28;20057;-85
2021/04/28 09:00:39;;;;;;;8.85;3.22;;;;;;;21.16;14.17;100792.78;4994437;28;20042;-87
2021/04/28 09:03:05;;;;;;;4.40;3.13;;;;;;;20.90;14.37;100790.53;4993879;28;20149;-85
2021/04/28 09:05:38;;;;;;;4.13;3.33;;;;;;;19.69;15.47;100787.25;4984493;28;20026;-88
2021/04/28 09:08:11;;;;;;;2.95;2.30;;;;;;;18.64;15.45;100781.25;4977972;28;20044;-84
2021/04/28 09:10:38;;;;;;;5.18;2.72;;;;;;;18.35;16.73;100781.63;4992385;28;20034;-81
2021/04/28 09:13:09;;;;;;;4.00;2.70;;;;;;;17.92;16.62;100784.75;4988599;28;20133;-84
2021/04/28 09:15:42;;;;;;;7.30;2.57;;;;;;;17.53;16.82;100781.38;4992767;28;20049;-85
2021/04/28 09:18:12;;;;;;;4.53;2.55;;;;;;;17.35;17.40;100780.00;4994320;28;20506;-85
2021/04/28 09:20:58;;;;;;;4.72;2.70;;;;;;;16.74;17.63;100779.78;4997600;28;20530;-86
2021/04/28 09:23:42;;;;;;;4.22;3.20;;;;;;;16.76;18.19;100778.75;4995149;28;20044;-85
2021/04/28 09:26:32;;;;;;;5.05;2.97;;;;;;;16.56;18.11;100766.88;4955049;28;20536;-85
2021/04/28 09:29:00;;;;;;;4.82;2.38;;;;;;;16.71;17.41;100772.91;5008165;28;20057;-86
2021/04/28 09:31:27;;;;;;;3.72;2.85;;;;;;;17.53;18.77;100762.88;4972652;28;20033;-82
2021/04/28 09:33:58;;;;;;;4.43;2.97;;;;;;;17.06;16.92;100768.84;4989868;28;20059;-83
2021/04/28 09:36:40;;;;;;;7.97;3.05;;;;;;;16.38;17.63;100760.19;4978232;28;20029;-85
2021/04/28 09:39:17;;;;;;;4.80;3.10;;;;;;;15.74;18.99;100765.19;4988465;28;20042;-84
2021/04/28 09:41:51;;;;;;;4.20;3.38;;;;;;;16.29;17.41;100756.38;4985827;28;20030;-82
2021/04/28 09:44:23;;;;;;;6.25;2.88;;;;;;;17.05;16.88;100751.31;4988524;28;20042;-85
2021/04/28 09:46:56;;;;;;;8.23;3.40;;;;;;;16.74;16.75;100753.38;5006527;28;20030;-86
2021/04/28 09:49:22;;;;;;;5.18;2.80;;;;;;;16.81;16.19;100744.13;4975038;28;20077;-83
2021/04/28 09:51:57;;;;;;;7.63;2.50;;;;;;;17.32;15.95;100743.25;4989091;28;20302;-86
2021/04/28 09:54:31;;;;;;;3.83;1.95;;;;;;;17.02;15.83;100739.16;4989596;28;20046;-86
2021/04/28 09:56:58;;;;;;;4.47;2.78;;;;;;;15.81;16.92;100737.50;5005859;28;20034;-82
2021/04/28 09:59:43;;;;;;;3.38;2.15;;;;;;;16.44;16.43;100735.19;5003661;28;20080;-82
2021/04/28 10:02:24;;;;;;;4.50;2.67;;;;;;;17.03;16.36;100738.22;4989577;28;20069;-85
2021/04/28 10:04:50;;;;;;;4.60;2.30;;;;;;;17.52;16.57;100740.06;4986610;28;20549;-88
2021/04/28 10:07:26;;;;;;;9.68;2.88;;;;;;;17.80;15.09;100728.31;5000854;28;20148;-82
2021/04/28 10:09:53;;;;;;;3.05;2.08;;;;;;;16.96;15.68;100736.97;4981679;28;20030;-84
2021/04/28 10:12:20;;;;;;;3.58;2.17;;;;;;;17.15;16.56;100725.94;5018171;28;20029;-84
2021/04/28 10:14:46;;;;;;;5.15;2.58;;;;;;;17.38;16.61;100716.38;4989646;28;20411;-86
2021/04/28 10:17:13;;;;;;;3.30;2.53;;;;;;;18.04;16.42;100709.81;4990604;28;20034;-88
2021/04/28 10:19:39;;;;;;;4.78;2.40;;;;;;;18.04;15.73;100709.81;4974331;28;20022;-88
2021/04/28 10:22:13;;;;;;;6.50;2.70;;;;;;;18.07;15.37;100714.03;4997754;28;20088;-87
2021/04/28 10:24:45;;;;;;;3.03;2.35;;;;;;;17.69;15.77;100701.00;5005928;28;20034;-85
2021/04/28 10:27:16;;;;;;;6.97;3.08;;;;;;;16.98;15.27;100708.66;5001429;28;20033;-85
2021/04/28 10:29:42;;;;;;;3.67;2.35;;;;;;;17.94;15.97;100700.88;4970771;28;20026;-85
2021/04/28 10:32:08;;;;;;;3.92;2.75;;;;;;;18.23;15.07;100703.19;4988216;28;20088;-85
2021/04/28 10:34:42;;;;;;;10.52;3.58;;;;;;;18.01;15.40;100699.47;5008187;28;20030;-84
2021/04/28 10:37:08;;;;;;;4.03;2.63;;;;;;;17.83;16.49;100703.47;5004934;28;20431;-85
2021/04/28 10:39:34;;;;;;;5.25;2.70;;;;;;;18.00;16.40;100696.94;4989325;28;20033;-86
2021/04/28 10:42:01;;;;;;;4.93;2.80;;;;;;;18.39;15.15;100701.06;4989738;28;20092;-87
2021/04/28 10:44:30;;;;;;;2.97;2.05;;;;;;;18.09;15.79;100684.81;4982476;28;20121;-83
2021/04/28 10:47:14;;;;;;;5.97;2.85;;;;;;;17.86;15.01;100682.09;5015946;28;20038;-85
2021/04/28 10:50:03;;;;;;;11.52;2.25;;;;;;;18.11;15.27;100691.69;4970765;28;20041;-84
2021/04/28 10:52:32;;;;;;;10.15;3.35;;;;;;;17.47;15.42;100685.81;4995409;28;20374;-85
2021/04/28 10:54:58;;;;;;;4.15;3.15;;;;;;;17.64;15.81;100685.47;4985808;28;20026;-84
2021/04/28 10:57:38;;;;;;;4.20;2.78;;;;;;;17.64;15.52;100691.59;4983413;28;20049;-83
2021/04/28 11:00:19;;;;;;;2.90;2.03;;;;;;;18.33;14.62;100688.28;4987165;28;20085;-85
2021/04/28 11:02:45;;;;;;;8.73;2.40;;;;;;;18.24;14.14;100686.34;4991798;28;20065;-87
2021/04/28 11:05:22;;;;;;;3.35;2.17;;;;;;;18.81;14.30;100687.28;5018952;28;20314;-85
2021/04/28 11:07:53;;;;;;;4.43;2.05;;;;;;;18.40;14.42;100694.81;4989766;28;20258;-85
2021/04/28 11:10:30;;;;;;;3.47;2.58;;;;;;;18.64;14.00;100686.78;4986929;28;20030;-83
2021/04/28 11:13:03;;;;;;;6.30;2.30;;;;;;;18.48;14.74;100684.47;5017795;28;20109;-83
2021/04/28 11:15:48;;;;;;;7.88;2.72;;;;;;;18.43;14.55;100688.44;5015148;28;20034;-84
2021/04/28 11:18:38;;;;;;;5.75;2.10;;;;;;;18.69;15.68;100683.78;5004531;28;20037;-87
2021/04/28 11:21:16;;;;;;;4.80;2.30;;;;;;;18.97;14.22;100677.22;5000612;28;20045;-87
2021/04/28 11:24:03;;;;;;;2.78;2.08;;;;;;;18.80;14.14;100683.78;5001268;28;20414;-87
2021/04/28 11:26:30;;;;;;;2.88;2.40;;;;;;;17.76;14.40;100689.88;5016644;28;20525;-83
2021/04/28 11:28:58;;;;;;;5.20;2.50;;;;;;;17.52;15.66;100687.22;5004086;28;20189;-84
2021/04/28 11:31:44;;;;;;;5.43;2.20;;;;;;;17.61;15.76;100675.97;5016800;28;20030;-85
2021/04/28 11:34:35;;;;;;;3.55;2.28;;;;;;;17.77;16.62;100685.41;4988600;28;21880;-87
2021/04/28 11:37:06;;;;;;;5.32;2.08;;;;;;;18.04;14.71;100670.13;5014491;28;20137;-83
2021/04/28 11:39:38;;;;;;;8.52;2.38;;;;;;;17.79;15.12;100668.50;4982309;28;20084;-81
2021/04/28 11:42:03;;;;;;;8.57;2.50;;;;;;;17.10;15.48;100670.81;5013061;28;20052;-82